Kaiyo — JGBF — position and weather

sailwx.info

Track history (hours):
 
Tides and Currents Weather Stations Pressure Air Temp Water Temp Dewpoint Dewpoint Depression Visibility Wind Speed Wind Dir Waves Ship Positions

Oceanographic research ship Kaiyo (Japan)

Detailed information on ship capabilities available from University of Delaware's Ocean Information Center.

Last reported at 2018-Feb-13 00:24 UTC. Time now 2018-Feb-23 14:23 UTC.
Position N 35°38' E 139°47'.
Warning: this ship's position is 10 days out of date.

Length 35 m; draft 3 m.

Type: Ship. MMSI: 431100049.

Date/timePositionNaut miles runAvg speedWind from/ knotsBaromVisibWave heightAir tempDewpointWater temp
2018-Feb-13 00:24N 35°38' E 139°47'3 5.7
2018-Feb-12 23:53N 35°35' E 139°47'410.3
2018-Feb-12 23:29N 35°34' E 139°52'1 0.2
2018-Feb-12 19:22N 35°35' E 139°53'0 0.0
2018-Feb-12 18:58N 35°35' E 139°53'0 0.0
2018-Feb-12 18:28N 35°35' E 139°53'0 0.0
2018-Feb-12 17:58N 35°35' E 139°53'0 0.0
2018-Feb-12 17:28N 35°35' E 139°53'0 0.0
2018-Feb-12 17:00N 35°35' E 139°53'0 0.0
2018-Feb-12 16:30N 35°35' E 139°53'0 0.0
2018-Feb-12 15:59N 35°35' E 139°53'0 0.0
2018-Feb-12 15:30N 35°35' E 139°53'0 0.0
2018-Feb-12 14:59N 35°35' E 139°53'0 0.0
2018-Feb-12 14:29N 35°35' E 139°53'0 0.0
2018-Feb-12 14:00N 35°35' E 139°53'0 0.0
2018-Feb-12 13:30N 35°35' E 139°53'0 0.0
2018-Feb-12 13:00N 35°35' E 139°53'5 6.3
2018-Feb-12 12:16N 35°30' E 139°53'312.4
2018-Feb-12 12:00N 35°28' E 139°51'612.0
2018-Feb-12 11:30N 35°23' E 139°46'510.9
2018-Feb-12 11:01N 35°18' E 139°45'510.8
2018-Feb-12 10:30N 35°12' E 139°47'611.5
2018-Feb-12 10:00N 35°07' E 139°44'612.1
2018-Feb-12 09:30N 35°04' E 139°38'612.4
2018-Feb-12 09:00N 35°02' E 139°30'612.8
2018-Feb-12 08:30N 35°00' E 139°23'611.7
2018-Feb-12 07:58N 34°58' E 139°16'1 1.1
2018-Feb-12 07:30N 34°58' E 139°15'1 1.1
2018-Feb-12 06:46N 34°57' E 139°15'1 4.5
2018-Feb-12 06:30N 34°58' E 139°16'1 1.9
2018-Feb-12 05:58N 34°57' E 139°16'1 0.8
2018-Feb-12 05:21N 34°57' E 139°16'1 2.3
2018-Feb-12 05:01N 34°58' E 139°16'1 1.8
2018-Feb-12 04:23N 34°58' E 139°17'1 2.4
2018-Feb-12 03:50N 34°57' E 139°16'0 1.2
2018-Feb-12 03:30N 34°57' E 139°16'0 0.5
2018-Feb-12 02:55N 34°58' E 139°16'2 3.7
2018-Feb-12 02:30N 34°58' E 139°14'2 3.8
2018-Feb-12 01:55N 34°58' E 139°17'4 9.6
2018-Feb-12 01:28N 34°59' E 139°22'4 9.2
2018-Feb-12 01:00N 34°59' E 139°27'5 9.3
2018-Feb-12 00:28N 34°60' E 139°34'4 8.8
2018-Feb-12 00:01N 34°60' E 139°38'6 9.0
2018-Feb-11 23:23N 35°01' E 139°45'4 0.5
2018-Feb-11 15:47N 35°01' E 139°50'0 0.0
2018-Feb-11 15:29N 35°01' E 139°50'0 0.0
2018-Feb-11 14:38N 35°01' E 139°50'0 0.0
2018-Feb-11 09:50N 35°01' E 139°50'0 0.0
2018-Feb-11 09:25N 35°01' E 139°50'0 0.0
2018-Feb-11 08:59N 35°01' E 139°50'0 0.1
2018-Feb-11 08:30N 35°01' E 139°50'0 0.0
2018-Feb-11 08:00N 35°01' E 139°50'0 0.0
2018-Feb-11 07:30N 35°01' E 139°50'0 0.0
2018-Feb-11 07:00N 35°01' E 139°50'0 0.0
2018-Feb-11 06:29N 35°01' E 139°50'0 0.0
2018-Feb-11 06:00N 35°01' E 139°50'0 0.0
2018-Feb-11 05:30N 35°01' E 139°50'0 0.0
2018-Feb-11 05:00N 35°01' E 139°50'0 0.0
2018-Feb-11 04:26N 35°01' E 139°50'0 0.1
2018-Feb-11 04:00N 35°01' E 139°50'0 0.0
2018-Feb-11 03:12N 35°01' E 139°50'0 0.0
2018-Feb-11 03:00N 35°01' E 139°50'0 0.0
2018-Feb-11 02:29N 35°01' E 139°50'0 0.0
2018-Feb-11 00:20N 35°01' E 139°50'0 0.1
2018-Feb-10 23:51N 35°01' E 139°50'11 3.1
2018-Feb-10 20:28N 34°50' E 139°47'1411.2
2018-Feb-10 19:15N 34°53' E 140°04'  
2018-Feb-06 05:57N 34°58' E 139°43'511.7
2018-Feb-06 05:30N 35°04' E 139°44'611.8
2018-Feb-06 05:00N 35°09' E 139°46'612.2
2018-Feb-06 04:30N 35°15' E 139°46'1510.2
2018-Feb-06 03:00N 35°30' E 139°51'611.3
2018-Feb-06 02:30N 35°35' E 139°47'3 0.1
2018-Feb-04 00:00N 35°38' E 139°47'  
Track history (hours):
 
Tides and Currents Weather Stations Pressure Air Temp Water Temp Dewpoint Dewpoint Depression Visibility Wind Speed Wind Dir Waves Ship Positions

Oceanographic research ship Kaiyo (Japan)

Detailed information on ship capabilities available from University of Delaware's Ocean Information Center.

Last reported at 2018-Feb-13 00:24 UTC. Time now 2018-Feb-23 14:23 UTC.
Position N 35°38' E 139°47'.
Warning: this ship's position is 10 days out of date.

Length 35 m; draft 3 m.

Type: Ship. MMSI: 431100049.

Date/timePositionNaut miles runAvg speedWind from/ knotsBaromVisibWave heightAir tempDewpointWater temp
2018-Feb-13 00:24N 35°38' E 139°47'3 5.7
2018-Feb-12 23:53N 35°35' E 139°47'410.3
2018-Feb-12 23:29N 35°34' E 139°52'1 0.2
2018-Feb-12 19:22N 35°35' E 139°53'0 0.0
2018-Feb-12 18:58N 35°35' E 139°53'0 0.0
2018-Feb-12 18:28N 35°35' E 139°53'0 0.0
2018-Feb-12 17:58N 35°35' E 139°53'0 0.0
2018-Feb-12 17:28N 35°35' E 139°53'0 0.0
2018-Feb-12 17:00N 35°35' E 139°53'0 0.0
2018-Feb-12 16:30N 35°35' E 139°53'0 0.0
2018-Feb-12 15:59N 35°35' E 139°53'0 0.0
2018-Feb-12 15:30N 35°35' E 139°53'0 0.0
2018-Feb-12 14:59N 35°35' E 139°53'0 0.0
2018-Feb-12 14:29N 35°35' E 139°53'0 0.0
2018-Feb-12 14:00N 35°35' E 139°53'0 0.0
2018-Feb-12 13:30N 35°35' E 139°53'0 0.0
2018-Feb-12 13:00N 35°35' E 139°53'5 6.3
2018-Feb-12 12:16N 35°30' E 139°53'312.4
2018-Feb-12 12:00N 35°28' E 139°51'612.0
2018-Feb-12 11:30N 35°23' E 139°46'510.9
2018-Feb-12 11:01N 35°18' E 139°45'510.8
2018-Feb-12 10:30N 35°12' E 139°47'611.5
2018-Feb-12 10:00N 35°07' E 139°44'612.1
2018-Feb-12 09:30N 35°04' E 139°38'612.4
2018-Feb-12 09:00N 35°02' E 139°30'612.8
2018-Feb-12 08:30N 35°00' E 139°23'611.7
2018-Feb-12 07:58N 34°58' E 139°16'1 1.1
2018-Feb-12 07:30N 34°58' E 139°15'1 1.1
2018-Feb-12 06:46N 34°57' E 139°15'1 4.5
2018-Feb-12 06:30N 34°58' E 139°16'1 1.9
2018-Feb-12 05:58N 34°57' E 139°16'1 0.8
2018-Feb-12 05:21N 34°57' E 139°16'1 2.3
2018-Feb-12 05:01N 34°58' E 139°16'1 1.8
2018-Feb-12 04:23N 34°58' E 139°17'1 2.4
2018-Feb-12 03:50N 34°57' E 139°16'0 1.2
2018-Feb-12 03:30N 34°57' E 139°16'0 0.5
2018-Feb-12 02:55N 34°58' E 139°16'2 3.7
2018-Feb-12 02:30N 34°58' E 139°14'2 3.8
2018-Feb-12 01:55N 34°58' E 139°17'4 9.6
2018-Feb-12 01:28N 34°59' E 139°22'4 9.2
2018-Feb-12 01:00N 34°59' E 139°27'5 9.3
2018-Feb-12 00:28N 34°60' E 139°34'4 8.8
2018-Feb-12 00:01N 34°60' E 139°38'6 9.0
2018-Feb-11 23:23N 35°01' E 139°45'4 0.5
2018-Feb-11 15:47N 35°01' E 139°50'0 0.0
2018-Feb-11 15:29N 35°01' E 139°50'0 0.0
2018-Feb-11 14:38N 35°01' E 139°50'0 0.0
2018-Feb-11 09:50N 35°01' E 139°50'0 0.0
2018-Feb-11 09:25N 35°01' E 139°50'0 0.0
2018-Feb-11 08:59N 35°01' E 139°50'0 0.1
2018-Feb-11 08:30N 35°01' E 139°50'0 0.0
2018-Feb-11 08:00N 35°01' E 139°50'0 0.0
2018-Feb-11 07:30N 35°01' E 139°50'0 0.0
2018-Feb-11 07:00N 35°01' E 139°50'0 0.0
2018-Feb-11 06:29N 35°01' E 139°50'0 0.0
2018-Feb-11 06:00N 35°01' E 139°50'0 0.0
2018-Feb-11 05:30N 35°01' E 139°50'0 0.0
2018-Feb-11 05:00N 35°01' E 139°50'0 0.0
2018-Feb-11 04:26N 35°01' E 139°50'0 0.1
2018-Feb-11 04:00N 35°01' E 139°50'0 0.0
2018-Feb-11 03:12N 35°01' E 139°50'0 0.0
2018-Feb-11 03:00N 35°01' E 139°50'0 0.0
2018-Feb-11 02:29N 35°01' E 139°50'0 0.0
2018-Feb-11 00:20N 35°01' E 139°50'0 0.1
2018-Feb-10 23:51N 35°01' E 139°50'11 3.1
2018-Feb-10 20:28N 34°50' E 139°47'1411.2
2018-Feb-10 19:15N 34°53' E 140°04'  
2018-Feb-06 05:57N 34°58' E 139°43'511.7
2018-Feb-06 05:30N 35°04' E 139°44'611.8
2018-Feb-06 05:00N 35°09' E 139°46'612.2
2018-Feb-06 04:30N 35°15' E 139°46'1510.2
2018-Feb-06 03:00N 35°30' E 139°51'611.3
2018-Feb-06 02:30N 35°35' E 139°47'3 0.1
2018-Feb-04 00:00N 35°38' E 139°47'  

Dump ship's entire track history